Schedule Details


Flight Number: CTN471
Departure: Charles-de-gaulle (LFPG) at 18:30
Arrival: Franjo Tudman (LDZA) at 20:20
Route: LANVI UM164 EPL UN491 DEGES UN871 MADEB UN606 ELMEM UL607 GEDSO DCT VEKEN Y177 DEGUM DCT ARGOM

Weather Information
LFPG 211400Z 35004KT 270V080 9999 SCT038 BKN050 26/16 Q1020 NOSIG
LDZA 211400Z 08004KT 010V170 CAVOK 32/16 Q1015 NOSIG
Schedule Frequency

Route Map